sensor_id;sensor_type;location;lat;lon;timestamp;P1;durP1;ratioP1;P2;durP2;ratioP2
41653;SDS011;30790;52.030;7.110;2022-07-04T00:00:18;1.67;;;0.80;;
41653;SDS011;30790;52.030;7.110;2022-07-04T00:02:44;0.95;;;0.70;;
41653;SDS011;30790;52.030;7.110;2022-07-04T00:05:11;1.98;;;0.88;;
41653;SDS011;30790;52.030;7.110;2022-07-04T00:07:37;1.38;;;1.10;;
41653;SDS011;30790;52.030;7.110;2022-07-04T00:10:04;1.10;;;0.70;;
41653;SDS011;30790;52.030;7.110;2022-07-04T00:12:30;2.42;;;0.90;;
41653;SDS011;30790;52.030;7.110;2022-07-04T00:14:56;1.40;;;0.93;;
41653;SDS011;30790;52.030;7.110;2022-07-04T00:17:21;1.58;;;0.95;;
41653;SDS011;30790;52.030;7.110;2022-07-04T00:19:46;2.13;;;0.73;;
41653;SDS011;30790;52.030;7.110;2022-07-04T00:22:12;0.90;;;0.77;;
41653;SDS011;30790;52.030;7.110;2022-07-04T00:24:37;0.77;;;0.70;;
41653;SDS011;30790;52.030;7.110;2022-07-04T00:27:02;2.92;;;0.80;;
41653;SDS011;30790;52.030;7.110;2022-07-04T00:29:28;3.83;;;1.08;;
41653;SDS011;30790;52.030;7.110;2022-07-04T00:31:54;0.73;;;0.70;;
41653;SDS011;30790;52.030;7.110;2022-07-04T00:34:20;1.65;;;0.80;;
41653;SDS011;30790;52.030;7.110;2022-07-04T00:36:45;1.23;;;0.98;;
41653;SDS011;30790;52.030;7.110;2022-07-04T00:39:11;1.67;;;0.80;;
41653;SDS011;30790;52.030;7.110;2022-07-04T00:41:36;0.63;;;0.63;;
41653;SDS011;30790;52.030;7.110;2022-07-04T00:44:05;1.10;;;0.80;;
41653;SDS011;30790;52.030;7.110;2022-07-04T00:46:32;1.55;;;0.75;;
41653;SDS011;30790;52.030;7.110;2022-07-04T00:48:57;0.95;;;0.85;;
41653;SDS011;30790;52.030;7.110;2022-07-04T00:51:23;1.33;;;0.75;;
41653;SDS011;30790;52.030;7.110;2022-07-04T00:53:49;1.42;;;0.90;;
41653;SDS011;30790;52.030;7.110;2022-07-04T00:56:16;1.10;;;1.00;;
41653;SDS011;30790;52.030;7.110;2022-07-04T00:58:42;1.42;;;0.90;;
41653;SDS011;30790;52.030;7.110;2022-07-04T01:01:07;0.95;;;0.68;;
41653;SDS011;30790;52.030;7.110;2022-07-04T01:03:32;1.35;;;0.85;;
41653;SDS011;30790;52.030;7.110;2022-07-04T01:05:58;0.75;;;0.70;;
41653;SDS011;30790;52.030;7.110;2022-07-04T01:08:25;2.17;;;0.80;;
41653;SDS011;30790;52.030;7.110;2022-07-04T01:10:51;0.93;;;0.80;;
41653;SDS011;30790;52.030;7.110;2022-07-04T01:13:22;1.13;;;0.88;;
41653;SDS011;30790;52.030;7.110;2022-07-04T01:15:48;0.93;;;0.70;;
41653;SDS011;30790;52.030;7.110;2022-07-04T01:18:15;1.85;;;0.90;;
41653;SDS011;30790;52.030;7.110;2022-07-04T01:20:41;1.40;;;1.05;;
41653;SDS011;30790;52.030;7.110;2022-07-04T01:23:06;1.75;;;0.93;;
41653;SDS011;30790;52.030;7.110;2022-07-04T01:25:32;0.88;;;0.85;;
41653;SDS011;30790;52.030;7.110;2022-07-04T01:28:00;1.20;;;0.93;;
41653;SDS011;30790;52.030;7.110;2022-07-04T01:30:27;1.27;;;0.95;;
41653;SDS011;30790;52.030;7.110;2022-07-04T01:32:53;1.60;;;0.80;;
41653;SDS011;30790;52.030;7.110;2022-07-04T01:35:19;1.85;;;1.00;;
41653;SDS011;30790;52.030;7.110;2022-07-04T01:37:44;1.38;;;0.98;;
41653;SDS011;30790;52.030;7.110;2022-07-04T01:40:10;1.10;;;1.00;;
41653;SDS011;30790;52.030;7.110;2022-07-04T01:42:37;2.45;;;1.30;;
41653;SDS011;30790;52.030;7.110;2022-07-04T01:45:03;1.75;;;1.08;;
41653;SDS011;30790;52.030;7.110;2022-07-04T01:47:29;2.22;;;1.08;;
41653;SDS011;30790;52.030;7.110;2022-07-04T01:49:54;1.20;;;1.10;;
41653;SDS011;30790;52.030;7.110;2022-07-04T01:52:20;1.30;;;0.90;;
41653;SDS011;30790;52.030;7.110;2022-07-04T01:54:45;2.22;;;1.10;;
41653;SDS011;30790;52.030;7.110;2022-07-04T01:57:10;1.02;;;0.77;;
41653;SDS011;30790;52.030;7.110;2022-07-04T01:59:37;1.10;;;1.00;;
41653;SDS011;30790;52.030;7.110;2022-07-04T02:02:21;1.63;;;1.10;;
41653;SDS011;30790;52.030;7.110;2022-07-04T02:04:47;2.78;;;1.38;;
41653;SDS011;30790;52.030;7.110;2022-07-04T02:07:12;2.03;;;0.90;;
41653;SDS011;30790;52.030;7.110;2022-07-04T02:09:37;1.30;;;0.77;;
41653;SDS011;30790;52.030;7.110;2022-07-04T02:12:03;1.50;;;1.08;;
41653;SDS011;30790;52.030;7.110;2022-07-04T02:14:47;1.20;;;1.10;;
41653;SDS011;30790;52.030;7.110;2022-07-04T02:17:12;1.30;;;1.00;;
41653;SDS011;30790;52.030;7.110;2022-07-04T02:19:38;1.35;;;1.23;;
41653;SDS011;30790;52.030;7.110;2022-07-04T02:22:03;1.38;;;0.95;;
41653;SDS011;30790;52.030;7.110;2022-07-04T02:24:28;1.60;;;1.00;;
41653;SDS011;30790;52.030;7.110;2022-07-04T02:26:54;1.52;;;1.17;;
41653;SDS011;30790;52.030;7.110;2022-07-04T02:29:19;2.33;;;1.20;;
41653;SDS011;30790;52.030;7.110;2022-07-04T02:31:44;1.42;;;1.10;;
41653;SDS011;30790;52.030;7.110;2022-07-04T02:34:10;1.35;;;1.10;;
41653;SDS011;30790;52.030;7.110;2022-07-04T02:36:35;1.52;;;1.13;;
41653;SDS011;30790;52.030;7.110;2022-07-04T02:39:01;1.23;;;1.15;;
41653;SDS011;30790;52.030;7.110;2022-07-04T02:41:27;1.38;;;1.13;;
41653;SDS011;30790;52.030;7.110;2022-07-04T02:43:52;2.45;;;1.40;;
41653;SDS011;30790;52.030;7.110;2022-07-04T02:46:18;1.40;;;0.77;;
41653;SDS011;30790;52.030;7.110;2022-07-04T02:48:43;1.13;;;1.02;;
41653;SDS011;30790;52.030;7.110;2022-07-04T02:51:08;2.40;;;1.17;;
41653;SDS011;30790;52.030;7.110;2022-07-04T02:53:34;1.52;;;1.10;;
41653;SDS011;30790;52.030;7.110;2022-07-04T02:55:59;1.48;;;1.27;;
41653;SDS011;30790;52.030;7.110;2022-07-04T02:58:28;1.58;;;0.90;;
41653;SDS011;30790;52.030;7.110;2022-07-04T03:00:54;1.90;;;0.93;;
41653;SDS011;30790;52.030;7.110;2022-07-04T03:03:19;1.35;;;0.90;;
41653;SDS011;30790;52.030;7.110;2022-07-04T03:05:44;2.70;;;1.10;;
41653;SDS011;30790;52.030;7.110;2022-07-04T03:08:09;1.00;;;0.88;;
41653;SDS011;30790;52.030;7.110;2022-07-04T03:10:35;2.20;;;1.05;;
41653;SDS011;30790;52.030;7.110;2022-07-04T03:13:00;1.48;;;1.27;;
41653;SDS011;30790;52.030;7.110;2022-07-04T03:15:25;2.10;;;1.17;;
41653;SDS011;30790;52.030;7.110;2022-07-04T03:17:50;1.60;;;1.20;;
41653;SDS011;30790;52.030;7.110;2022-07-04T03:20:16;3.70;;;1.25;;
41653;SDS011;30790;52.030;7.110;2022-07-04T03:22:41;1.50;;;1.20;;
41653;SDS011;30790;52.030;7.110;2022-07-04T03:25:06;2.78;;;1.55;;
41653;SDS011;30790;52.030;7.110;2022-07-04T03:27:32;2.47;;;1.10;;
41653;SDS011;30790;52.030;7.110;2022-07-04T03:29:57;1.58;;;1.00;;
41653;SDS011;30790;52.030;7.110;2022-07-04T03:32:22;1.38;;;0.98;;
41653;SDS011;30790;52.030;7.110;2022-07-04T03:34:48;1.30;;;1.20;;
41653;SDS011;30790;52.030;7.110;2022-07-04T03:37:13;1.48;;;1.02;;
41653;SDS011;30790;52.030;7.110;2022-07-04T03:39:38;0.90;;;0.90;;
41653;SDS011;30790;52.030;7.110;2022-07-04T03:42:03;1.60;;;1.00;;
41653;SDS011;30790;52.030;7.110;2022-07-04T03:44:29;1.23;;;1.00;;
41653;SDS011;30790;52.030;7.110;2022-07-04T03:46:54;2.38;;;1.27;;
41653;SDS011;30790;52.030;7.110;2022-07-04T03:49:20;1.27;;;1.15;;
41653;SDS011;30790;52.030;7.110;2022-07-04T03:51:45;1.52;;;1.17;;
41653;SDS011;30790;52.030;7.110;2022-07-04T03:54:11;1.88;;;1.40;;
41653;SDS011;30790;52.030;7.110;2022-07-04T03:56:36;4.57;;;2.20;;
41653;SDS011;30790;52.030;7.110;2022-07-04T03:59:01;6.00;;;3.10;;
41653;SDS011;30790;52.030;7.110;2022-07-04T04:01:26;7.10;;;3.45;;
41653;SDS011;30790;52.030;7.110;2022-07-04T04:03:52;6.43;;;3.30;;
41653;SDS011;30790;52.030;7.110;2022-07-04T04:06:35;6.28;;;3.47;;
41653;SDS011;30790;52.030;7.110;2022-07-04T04:09:01;8.30;;;3.67;;
41653;SDS011;30790;52.030;7.110;2022-07-04T04:11:26;6.15;;;3.60;;
41653;SDS011;30790;52.030;7.110;2022-07-04T04:13:51;5.85;;;3.17;;
41653;SDS011;30790;52.030;7.110;2022-07-04T04:16:17;8.38;;;3.45;;
41653;SDS011;30790;52.030;7.110;2022-07-04T04:18:42;7.60;;;3.17;;
41653;SDS011;30790;52.030;7.110;2022-07-04T04:21:07;5.72;;;3.15;;
41653;SDS011;30790;52.030;7.110;2022-07-04T04:23:33;5.95;;;2.85;;
41653;SDS011;30790;52.030;7.110;2022-07-04T04:25:58;4.57;;;2.63;;
41653;SDS011;30790;52.030;7.110;2022-07-04T04:28:23;4.80;;;2.40;;
41653;SDS011;30790;52.030;7.110;2022-07-04T04:30:51;3.60;;;2.60;;
41653;SDS011;30790;52.030;7.110;2022-07-04T04:33:17;4.60;;;2.67;;
41653;SDS011;30790;52.030;7.110;2022-07-04T04:35:42;4.15;;;2.42;;
41653;SDS011;30790;52.030;7.110;2022-07-04T04:38:07;8.25;;;2.70;;
41653;SDS011;30790;52.030;7.110;2022-07-04T04:40:33;6.95;;;2.95;;
41653;SDS011;30790;52.030;7.110;2022-07-04T04:42:58;5.32;;;2.63;;
41653;SDS011;30790;52.030;7.110;2022-07-04T04:45:23;7.72;;;3.05;;
41653;SDS011;30790;52.030;7.110;2022-07-04T04:47:49;4.65;;;2.90;;
41653;SDS011;30790;52.030;7.110;2022-07-04T04:50:14;6.30;;;2.90;;
41653;SDS011;30790;52.030;7.110;2022-07-04T04:52:40;4.28;;;3.25;;
41653;SDS011;30790;52.030;7.110;2022-07-04T04:55:06;6.75;;;3.00;;
41653;SDS011;30790;52.030;7.110;2022-07-04T04:57:32;7.22;;;3.30;;
41653;SDS011;30790;52.030;7.110;2022-07-04T04:59:57;6.72;;;2.53;;
41653;SDS011;30790;52.030;7.110;2022-07-04T05:02:23;8.18;;;3.15;;
41653;SDS011;30790;52.030;7.110;2022-07-04T05:04:48;2.92;;;2.40;;
41653;SDS011;30790;52.030;7.110;2022-07-04T05:07:13;7.50;;;2.60;;
41653;SDS011;30790;52.030;7.110;2022-07-04T05:09:39;8.30;;;2.10;;
41653;SDS011;30790;52.030;7.110;2022-07-04T05:12:04;4.47;;;1.83;;
41653;SDS011;30790;52.030;7.110;2022-07-04T05:14:30;3.60;;;1.55;;
41653;SDS011;30790;52.030;7.110;2022-07-04T05:16:55;3.75;;;1.42;;
41653;SDS011;30790;52.030;7.110;2022-07-04T05:19:20;1.67;;;1.45;;
41653;SDS011;30790;52.030;7.110;2022-07-04T05:21:46;1.65;;;1.42;;
41653;SDS011;30790;52.030;7.110;2022-07-04T05:24:11;4.45;;;2.08;;
41653;SDS011;30790;52.030;7.110;2022-07-04T05:26:36;1.85;;;1.50;;
41653;SDS011;30790;52.030;7.110;2022-07-04T05:29:02;1.45;;;1.35;;
41653;SDS011;30790;52.030;7.110;2022-07-04T05:31:27;3.20;;;1.88;;
41653;SDS011;30790;52.030;7.110;2022-07-04T05:33:53;3.53;;;1.30;;
41653;SDS011;30790;52.030;7.110;2022-07-04T05:36:19;2.63;;;1.30;;
41653;SDS011;30790;52.030;7.110;2022-07-04T05:38:45;1.80;;;1.27;;
41653;SDS011;30790;52.030;7.110;2022-07-04T05:41:10;2.35;;;1.30;;
41653;SDS011;30790;52.030;7.110;2022-07-04T05:43:36;6.05;;;1.95;;
41653;SDS011;30790;52.030;7.110;2022-07-04T05:46:01;1.95;;;1.20;;
41653;SDS011;30790;52.030;7.110;2022-07-04T05:48:26;1.65;;;1.25;;
41653;SDS011;30790;52.030;7.110;2022-07-04T05:50:51;4.13;;;1.50;;
41653;SDS011;30790;52.030;7.110;2022-07-04T05:53:17;3.08;;;1.60;;
41653;SDS011;30790;52.030;7.110;2022-07-04T05:55:42;3.00;;;1.40;;
41653;SDS011;30790;52.030;7.110;2022-07-04T05:58:07;4.40;;;1.30;;
41653;SDS011;30790;52.030;7.110;2022-07-04T06:00:33;4.18;;;1.55;;
41653;SDS011;30790;52.030;7.110;2022-07-04T06:02:58;1.73;;;1.25;;
41653;SDS011;30790;52.030;7.110;2022-07-04T06:05:23;3.83;;;1.20;;
41653;SDS011;30790;52.030;7.110;2022-07-04T06:07:49;3.40;;;1.60;;
41653;SDS011;30790;52.030;7.110;2022-07-04T06:10:14;3.03;;;1.23;;
41653;SDS011;30790;52.030;7.110;2022-07-04T06:12:40;4.00;;;1.48;;
41653;SDS011;30790;52.030;7.110;2022-07-04T06:15:05;1.88;;;1.40;;
41653;SDS011;30790;52.030;7.110;2022-07-04T06:17:31;2.70;;;1.30;;
41653;SDS011;30790;52.030;7.110;2022-07-04T06:19:57;6.57;;;1.60;;
41653;SDS011;30790;52.030;7.110;2022-07-04T06:22:22;2.33;;;1.45;;
41653;SDS011;30790;52.030;7.110;2022-07-04T06:24:48;2.53;;;1.15;;
41653;SDS011;30790;52.030;7.110;2022-07-04T06:27:13;3.75;;;1.50;;
41653;SDS011;30790;52.030;7.110;2022-07-04T06:29:38;3.42;;;1.50;;
41653;SDS011;30790;52.030;7.110;2022-07-04T06:32:05;4.95;;;1.65;;
41653;SDS011;30790;52.030;7.110;2022-07-04T06:34:31;4.13;;;1.58;;
41653;SDS011;30790;52.030;7.110;2022-07-04T06:37:31;3.88;;;1.38;;
41653;SDS011;30790;52.030;7.110;2022-07-04T06:39:57;5.35;;;1.95;;
41653;SDS011;30790;52.030;7.110;2022-07-04T06:42:22;2.60;;;1.60;;
41653;SDS011;30790;52.030;7.110;2022-07-04T06:44:47;2.90;;;1.27;;
41653;SDS011;30790;52.030;7.110;2022-07-04T06:47:12;1.27;;;0.98;;
41653;SDS011;30790;52.030;7.110;2022-07-04T06:49:38;4.43;;;1.47;;
41653;SDS011;30790;52.030;7.110;2022-07-04T06:52:03;2.47;;;1.50;;
41653;SDS011;30790;52.030;7.110;2022-07-04T06:54:29;3.75;;;1.25;;
41653;SDS011;30790;52.030;7.110;2022-07-04T06:56:54;3.22;;;1.83;;
41653;SDS011;30790;52.030;7.110;2022-07-04T06:59:19;4.65;;;1.63;;
41653;SDS011;30790;52.030;7.110;2022-07-04T07:01:44;2.60;;;1.13;;
41653;SDS011;30790;52.030;7.110;2022-07-04T07:04:10;6.70;;;1.50;;
41653;SDS011;30790;52.030;7.110;2022-07-04T07:06:35;13.90;;;1.88;;
41653;SDS011;30790;52.030;7.110;2022-07-04T07:09:00;11.98;;;2.58;;
41653;SDS011;30790;52.030;7.110;2022-07-04T07:11:26;5.40;;;1.50;;
41653;SDS011;30790;52.030;7.110;2022-07-04T07:13:51;4.15;;;1.50;;
41653;SDS011;30790;52.030;7.110;2022-07-04T07:16:17;3.80;;;1.48;;
41653;SDS011;30790;52.030;7.110;2022-07-04T07:18:43;2.20;;;1.40;;
41653;SDS011;30790;52.030;7.110;2022-07-04T07:21:09;6.18;;;1.40;;
41653;SDS011;30790;52.030;7.110;2022-07-04T07:23:37;4.85;;;1.50;;
41653;SDS011;30790;52.030;7.110;2022-07-04T07:26:05;9.75;;;1.83;;
41653;SDS011;30790;52.030;7.110;2022-07-04T07:28:31;5.97;;;1.55;;
41653;SDS011;30790;52.030;7.110;2022-07-04T07:30:57;6.05;;;1.52;;
41653;SDS011;30790;52.030;7.110;2022-07-04T07:33:22;1.77;;;1.20;;
41653;SDS011;30790;52.030;7.110;2022-07-04T07:35:47;8.93;;;1.83;;
41653;SDS011;30790;52.030;7.110;2022-07-04T07:38:12;7.15;;;1.83;;
41653;SDS011;30790;52.030;7.110;2022-07-04T07:40:38;6.40;;;1.70;;
41653;SDS011;30790;52.030;7.110;2022-07-04T07:43:03;5.57;;;1.60;;
41653;SDS011;30790;52.030;7.110;2022-07-04T07:45:28;8.23;;;1.80;;
41653;SDS011;30790;52.030;7.110;2022-07-04T07:47:54;4.47;;;1.30;;
41653;SDS011;30790;52.030;7.110;2022-07-04T07:50:19;5.63;;;1.52;;
41653;SDS011;30790;52.030;7.110;2022-07-04T07:52:44;11.38;;;2.05;;
41653;SDS011;30790;52.030;7.110;2022-07-04T07:55:09;10.05;;;1.73;;
41653;SDS011;30790;52.030;7.110;2022-07-04T07:57:35;6.90;;;1.35;;
41653;SDS011;30790;52.030;7.110;2022-07-04T08:00:00;5.28;;;1.65;;
41653;SDS011;30790;52.030;7.110;2022-07-04T08:02:26;4.40;;;1.38;;
41653;SDS011;30790;52.030;7.110;2022-07-04T08:05:10;5.65;;;1.38;;
41653;SDS011;30790;52.030;7.110;2022-07-04T08:07:36;5.65;;;1.30;;
41653;SDS011;30790;52.030;7.110;2022-07-04T08:10:04;3.63;;;1.40;;
41653;SDS011;30790;52.030;7.110;2022-07-04T08:12:30;8.85;;;1.67;;
41653;SDS011;30790;52.030;7.110;2022-07-04T08:14:55;7.28;;;1.25;;
41653;SDS011;30790;52.030;7.110;2022-07-04T08:17:20;5.32;;;1.20;;
41653;SDS011;30790;52.030;7.110;2022-07-04T08:19:46;4.68;;;1.10;;
41653;SDS011;30790;52.030;7.110;2022-07-04T08:22:12;3.08;;;1.25;;
41653;SDS011;30790;52.030;7.110;2022-07-04T08:24:38;9.63;;;1.48;;
41653;SDS011;30790;52.030;7.110;2022-07-04T08:27:03;3.25;;;1.10;;
41653;SDS011;30790;52.030;7.110;2022-07-04T08:29:29;5.18;;;1.23;;
41653;SDS011;30790;52.030;7.110;2022-07-04T08:31:57;5.80;;;1.30;;
41653;SDS011;30790;52.030;7.110;2022-07-04T08:34:22;3.97;;;1.40;;
41653;SDS011;30790;52.030;7.110;2022-07-04T08:36:47;7.90;;;1.73;;
41653;SDS011;30790;52.030;7.110;2022-07-04T08:39:13;6.03;;;1.60;;
41653;SDS011;30790;52.030;7.110;2022-07-04T08:41:39;6.88;;;1.42;;
41653;SDS011;30790;52.030;7.110;2022-07-04T08:44:07;14.88;;;2.30;;
41653;SDS011;30790;52.030;7.110;2022-07-04T08:46:36;6.75;;;1.48;;
41653;SDS011;30790;52.030;7.110;2022-07-04T08:49:05;6.45;;;1.50;;
41653;SDS011;30790;52.030;7.110;2022-07-04T08:51:54;5.55;;;1.40;;
41653;SDS011;30790;52.030;7.110;2022-07-04T08:54:24;4.55;;;1.98;;
41653;SDS011;30790;52.030;7.110;2022-07-04T08:57:09;2.83;;;1.38;;
41653;SDS011;30790;52.030;7.110;2022-07-04T08:59:53;2.42;;;1.10;;
41653;SDS011;30790;52.030;7.110;2022-07-04T09:02:20;10.45;;;1.52;;
41653;SDS011;30790;52.030;7.110;2022-07-04T09:04:47;6.78;;;1.45;;
41653;SDS011;30790;52.030;7.110;2022-07-04T09:07:15;7.97;;;1.52;;
41653;SDS011;30790;52.030;7.110;2022-07-04T09:09:41;6.88;;;1.10;;
41653;SDS011;30790;52.030;7.110;2022-07-04T09:12:08;4.93;;;1.52;;
41653;SDS011;30790;52.030;7.110;2022-07-04T09:14:34;4.80;;;1.45;;
41653;SDS011;30790;52.030;7.110;2022-07-04T09:16:59;7.43;;;1.13;;
41653;SDS011;30790;52.030;7.110;2022-07-04T09:19:25;4.50;;;1.30;;
41653;SDS011;30790;52.030;7.110;2022-07-04T09:21:50;2.83;;;1.25;;
41653;SDS011;30790;52.030;7.110;2022-07-04T09:24:15;3.92;;;1.10;;
41653;SDS011;30790;52.030;7.110;2022-07-04T09:26:45;1.45;;;0.90;;
41653;SDS011;30790;52.030;7.110;2022-07-04T09:29:12;5.18;;;1.65;;
41653;SDS011;30790;52.030;7.110;2022-07-04T09:31:37;3.35;;;1.10;;
41653;SDS011;30790;52.030;7.110;2022-07-04T09:34:04;4.78;;;1.20;;
41653;SDS011;30790;52.030;7.110;2022-07-04T09:36:32;5.50;;;1.58;;
41653;SDS011;30790;52.030;7.110;2022-07-04T09:42:01;3.42;;;1.30;;
41653;SDS011;30790;52.030;7.110;2022-07-04T09:44:29;6.03;;;1.30;;
41653;SDS011;30790;52.030;7.110;2022-07-04T09:47:22;1.08;;;0.88;;
41653;SDS011;30790;52.030;7.110;2022-07-04T09:52:31;4.50;;;1.83;;
41653;SDS011;30790;52.030;7.110;2022-07-04T09:55:01;2.78;;;1.20;;
41653;SDS011;30790;52.030;7.110;2022-07-04T09:57:31;9.48;;;1.67;;
41653;SDS011;30790;52.030;7.110;2022-07-04T10:00:15;8.68;;;1.77;;
41653;SDS011;30790;52.030;7.110;2022-07-04T10:02:41;5.65;;;1.38;;
41653;SDS011;30790;52.030;7.110;2022-07-04T10:05:07;8.45;;;1.10;;
41653;SDS011;30790;52.030;7.110;2022-07-04T10:07:34;6.35;;;1.00;;
41653;SDS011;30790;52.030;7.110;2022-07-04T10:12:48;7.05;;;1.33;;
41653;SDS011;30790;52.030;7.110;2022-07-04T10:15:15;3.75;;;1.38;;
41653;SDS011;30790;52.030;7.110;2022-07-04T10:17:41;2.40;;;1.05;;
41653;SDS011;30790;52.030;7.110;2022-07-04T10:20:06;5.57;;;1.30;;
41653;SDS011;30790;52.030;7.110;2022-07-04T10:22:32;4.07;;;1.35;;
41653;SDS011;30790;52.030;7.110;2022-07-04T10:24:57;5.68;;;1.48;;
41653;SDS011;30790;52.030;7.110;2022-07-04T10:27:23;6.53;;;1.55;;
41653;SDS011;30790;52.030;7.110;2022-07-04T10:29:48;5.57;;;1.50;;
41653;SDS011;30790;52.030;7.110;2022-07-04T10:32:15;3.50;;;1.35;;
41653;SDS011;30790;52.030;7.110;2022-07-04T10:34:41;4.93;;;1.23;;
41653;SDS011;30790;52.030;7.110;2022-07-04T10:37:06;4.50;;;1.42;;
41653;SDS011;30790;52.030;7.110;2022-07-04T10:39:32;8.15;;;1.38;;
41653;SDS011;30790;52.030;7.110;2022-07-04T10:41:58;6.60;;;1.40;;
41653;SDS011;30790;52.030;7.110;2022-07-04T10:44:25;3.88;;;1.35;;
41653;SDS011;30790;52.030;7.110;2022-07-04T10:46:51;6.82;;;1.70;;
41653;SDS011;30790;52.030;7.110;2022-07-04T10:49:22;7.70;;;1.55;;
41653;SDS011;30790;52.030;7.110;2022-07-04T10:51:53;6.82;;;1.58;;
41653;SDS011;30790;52.030;7.110;2022-07-04T10:56:57;5.72;;;1.25;;
41653;SDS011;30790;52.030;7.110;2022-07-04T10:59:26;9.30;;;1.67;;
41653;SDS011;30790;52.030;7.110;2022-07-04T11:07:09;7.22;;;1.75;;
41653;SDS011;30790;52.030;7.110;2022-07-04T11:09:34;6.43;;;1.73;;
41653;SDS011;30790;52.030;7.110;2022-07-04T11:12:01;15.23;;;1.92;;
41653;SDS011;30790;52.030;7.110;2022-07-04T11:14:44;7.28;;;2.03;;
41653;SDS011;30790;52.030;7.110;2022-07-04T11:17:11;6.05;;;1.30;;
41653;SDS011;30790;52.030;7.110;2022-07-04T11:19:38;6.53;;;1.73;;
41653;SDS011;30790;52.030;7.110;2022-07-04T11:22:05;5.90;;;1.45;;
41653;SDS011;30790;52.030;7.110;2022-07-04T11:24:31;4.88;;;1.58;;
41653;SDS011;30790;52.030;7.110;2022-07-04T11:26:57;5.90;;;1.33;;
41653;SDS011;30790;52.030;7.110;2022-07-04T11:29:23;2.22;;;1.27;;
41653;SDS011;30790;52.030;7.110;2022-07-04T11:31:50;1.63;;;1.08;;
41653;SDS011;30790;52.030;7.110;2022-07-04T11:34:16;3.45;;;1.52;;
41653;SDS011;30790;52.030;7.110;2022-07-04T11:36:42;3.72;;;1.98;;
41653;SDS011;30790;52.030;7.110;2022-07-04T11:39:10;6.45;;;1.30;;
41653;SDS011;30790;52.030;7.110;2022-07-04T11:41:41;4.25;;;1.20;;
41653;SDS011;30790;52.030;7.110;2022-07-04T11:44:37;3.38;;;1.38;;
41653;SDS011;30790;52.030;7.110;2022-07-04T11:47:42;4.00;;;1.25;;
41653;SDS011;30790;52.030;7.110;2022-07-04T11:55:01;4.87;;;1.57;;
41653;SDS011;30790;52.030;7.110;2022-07-04T11:57:28;4.45;;;1.45;;
41653;SDS011;30790;52.030;7.110;2022-07-04T12:02:23;8.20;;;1.40;;
41653;SDS011;30790;52.030;7.110;2022-07-04T12:04:49;4.18;;;1.83;;
41653;SDS011;30790;52.030;7.110;2022-07-04T12:07:15;4.20;;;1.70;;
41653;SDS011;30790;52.030;7.110;2022-07-04T12:09:41;4.35;;;0.95;;
41653;SDS011;30790;52.030;7.110;2022-07-04T12:12:08;5.82;;;1.83;;
41653;SDS011;30790;52.030;7.110;2022-07-04T12:14:34;3.10;;;1.15;;
41653;SDS011;30790;52.030;7.110;2022-07-04T12:17:18;6.68;;;1.80;;
41653;SDS011;30790;52.030;7.110;2022-07-04T12:19:51;4.47;;;1.50;;
41653;SDS011;30790;52.030;7.110;2022-07-04T12:22:25;4.28;;;1.20;;
41653;SDS011;30790;52.030;7.110;2022-07-04T12:24:55;3.90;;;0.98;;
41653;SDS011;30790;52.030;7.110;2022-07-04T12:27:21;3.75;;;1.23;;
41653;SDS011;30790;52.030;7.110;2022-07-04T12:29:50;3.33;;;1.35;;
41653;SDS011;30790;52.030;7.110;2022-07-04T12:32:16;6.10;;;1.30;;
41653;SDS011;30790;52.030;7.110;2022-07-04T12:34:42;4.80;;;1.58;;
41653;SDS011;30790;52.030;7.110;2022-07-04T12:37:08;4.20;;;1.80;;
41653;SDS011;30790;52.030;7.110;2022-07-04T12:39:35;4.03;;;1.35;;
41653;SDS011;30790;52.030;7.110;2022-07-04T12:44:35;3.00;;;1.38;;
41653;SDS011;30790;52.030;7.110;2022-07-04T12:47:02;2.15;;;1.20;;
41653;SDS011;30790;52.030;7.110;2022-07-04T12:49:29;3.90;;;1.20;;
41653;SDS011;30790;52.030;7.110;2022-07-04T12:52:05;4.95;;;1.20;;
41653;SDS011;30790;52.030;7.110;2022-07-04T12:54:35;2.63;;;1.40;;
41653;SDS011;30790;52.030;7.110;2022-07-04T12:57:05;5.22;;;1.52;;
41653;SDS011;30790;52.030;7.110;2022-07-04T12:59:30;3.33;;;1.30;;
41653;SDS011;30790;52.030;7.110;2022-07-04T13:01:56;1.77;;;1.00;;
41653;SDS011;30790;52.030;7.110;2022-07-04T13:04:21;5.60;;;1.27;;
41653;SDS011;30790;52.030;7.110;2022-07-04T13:06:46;4.13;;;1.23;;
41653;SDS011;30790;52.030;7.110;2022-07-04T13:09:12;4.55;;;1.20;;
41653;SDS011;30790;52.030;7.110;2022-07-04T13:11:37;5.05;;;1.13;;
41653;SDS011;30790;52.030;7.110;2022-07-04T13:14:22;3.58;;;1.40;;
41653;SDS011;30790;52.030;7.110;2022-07-04T13:16:47;3.72;;;1.85;;
41653;SDS011;30790;52.030;7.110;2022-07-04T13:19:12;13.23;;;2.13;;
41653;SDS011;30790;52.030;7.110;2022-07-04T13:21:38;2.72;;;1.30;;
41653;SDS011;30790;52.030;7.110;2022-07-04T13:24:03;5.05;;;1.48;;
41653;SDS011;30790;52.030;7.110;2022-07-04T13:26:29;5.75;;;1.65;;
41653;SDS011;30790;52.030;7.110;2022-07-04T13:28:55;11.90;;;1.75;;
41653;SDS011;30790;52.030;7.110;2022-07-04T13:31:21;7.30;;;1.80;;
41653;SDS011;30790;52.030;7.110;2022-07-04T13:33:47;7.65;;;1.90;;
41653;SDS011;30790;52.030;7.110;2022-07-04T13:36:12;8.75;;;1.90;;
41653;SDS011;30790;52.030;7.110;2022-07-04T13:38:39;4.85;;;1.77;;
41653;SDS011;30790;52.030;7.110;2022-07-04T13:41:04;4.30;;;1.58;;
41653;SDS011;30790;52.030;7.110;2022-07-04T13:43:30;6.32;;;1.75;;
41653;SDS011;30790;52.030;7.110;2022-07-04T13:45:56;9.13;;;1.70;;
41653;SDS011;30790;52.030;7.110;2022-07-04T13:48:22;12.20;;;1.80;;
41653;SDS011;30790;52.030;7.110;2022-07-04T13:50:48;25.27;;;2.75;;
41653;SDS011;30790;52.030;7.110;2022-07-04T13:53:13;17.58;;;2.53;;
41653;SDS011;30790;52.030;7.110;2022-07-04T13:55:38;14.32;;;2.10;;
41653;SDS011;30790;52.030;7.110;2022-07-04T13:58:05;19.58;;;1.70;;
41653;SDS011;30790;52.030;7.110;2022-07-04T14:00:31;17.33;;;2.15;;
41653;SDS011;30790;52.030;7.110;2022-07-04T14:02:57;10.43;;;1.98;;
41653;SDS011;30790;52.030;7.110;2022-07-04T14:05:22;10.80;;;2.20;;
41653;SDS011;30790;52.030;7.110;2022-07-04T14:07:49;15.45;;;1.73;;
41653;SDS011;30790;52.030;7.110;2022-07-04T14:10:15;12.18;;;1.83;;
41653;SDS011;30790;52.030;7.110;2022-07-04T14:12:40;12.38;;;2.30;;
41653;SDS011;30790;52.030;7.110;2022-07-04T14:15:06;13.15;;;2.90;;
41653;SDS011;30790;52.030;7.110;2022-07-04T14:17:32;10.85;;;2.65;;
41653;SDS011;30790;52.030;7.110;2022-07-04T14:19:57;10.07;;;1.98;;
41653;SDS011;30790;52.030;7.110;2022-07-04T14:22:23;5.38;;;2.10;;
41653;SDS011;30790;52.030;7.110;2022-07-04T14:24:48;5.47;;;1.85;;
41653;SDS011;30790;52.030;7.110;2022-07-04T14:27:13;13.65;;;1.98;;
41653;SDS011;30790;52.030;7.110;2022-07-04T14:29:39;5.68;;;1.90;;
41653;SDS011;30790;52.030;7.110;2022-07-04T14:32:06;14.85;;;2.40;;
41653;SDS011;30790;52.030;7.110;2022-07-04T14:34:32;6.85;;;2.15;;
41653;SDS011;30790;52.030;7.110;2022-07-04T14:36:57;8.27;;;2.10;;
41653;SDS011;30790;52.030;7.110;2022-07-04T14:39:22;9.20;;;2.13;;
41653;SDS011;30790;52.030;7.110;2022-07-04T14:41:47;6.53;;;2.28;;
41653;SDS011;30790;52.030;7.110;2022-07-04T14:44:14;6.85;;;1.67;;
41653;SDS011;30790;52.030;7.110;2022-07-04T14:46:39;10.60;;;2.10;;
41653;SDS011;30790;52.030;7.110;2022-07-04T14:49:05;6.32;;;1.48;;
41653;SDS011;30790;52.030;7.110;2022-07-04T14:51:30;12.63;;;2.17;;
41653;SDS011;30790;52.030;7.110;2022-07-04T14:53:55;11.48;;;2.53;;
41653;SDS011;30790;52.030;7.110;2022-07-04T14:56:21;9.80;;;2.13;;
41653;SDS011;30790;52.030;7.110;2022-07-04T14:58:46;10.27;;;1.80;;
41653;SDS011;30790;52.030;7.110;2022-07-04T15:01:12;15.38;;;2.33;;
41653;SDS011;30790;52.030;7.110;2022-07-04T15:03:37;9.25;;;2.13;;
41653;SDS011;30790;52.030;7.110;2022-07-04T15:06:02;8.27;;;2.15;;
41653;SDS011;30790;52.030;7.110;2022-07-04T15:08:28;15.25;;;2.53;;